createdAt,value
2022-12-22T00:02:37.337Z,99888.83
2022-12-22T00:05:43.757Z,99887.39
2022-12-22T00:08:48.946Z,99884.06
2022-12-22T00:11:56.158Z,99876.31
2022-12-22T00:16:23.831Z,99870.46
2022-12-22T00:20:39.389Z,99867.73
2022-12-22T00:23:44.773Z,99870.65
2022-12-22T00:31:35.676Z,99870.19
2022-12-22T00:36:04.739Z,99869.90
2022-12-22T00:39:11.429Z,99867.83
2022-12-22T00:42:19.992Z,99866.15
2022-12-22T00:45:25.774Z,99870.83
2022-12-22T00:48:41.929Z,99871.52
2022-12-22T00:53:28.845Z,99871.88
2022-12-22T00:56:46.766Z,99860.16
2022-12-22T01:01:02.820Z,99857.06
2022-12-22T01:05:21.466Z,99855.91
2022-12-22T01:08:55.605Z,99853.61
2022-12-22T01:13:31.644Z,99853.25
2022-12-22T01:16:35.903Z,99853.05
2022-12-22T01:20:06.827Z,99854.38
2022-12-22T01:23:10.790Z,99861.22
2022-12-22T01:26:14.726Z,99857.13
2022-12-22T01:29:48.670Z,99855.59
2022-12-22T01:32:52.408Z,99848.08
2022-12-22T01:35:56.555Z,99850.55
2022-12-22T01:39:00.892Z,99848.13
2022-12-22T01:43:39.945Z,99846.91
2022-12-22T01:46:50.104Z,99845.63
2022-12-22T01:49:59.845Z,99847.07
2022-12-22T01:53:05.008Z,99847.60
2022-12-22T01:56:10.191Z,99844.20
2022-12-22T01:59:18.698Z,99844.65
2022-12-22T02:02:25.971Z,99844.42
2022-12-22T02:05:34.712Z,99845.10
2022-12-22T02:10:24.458Z,99843.33
2022-12-22T02:14:58.768Z,99836.44
2022-12-22T02:19:26.931Z,99831.20
2022-12-22T02:23:01.983Z,99829.20
2022-12-22T02:26:20.495Z,99834.59
2022-12-22T02:29:26.530Z,99831.45
2022-12-22T02:32:33.355Z,99836.59
2022-12-22T02:35:38.715Z,99836.90
2022-12-22T02:39:00.069Z,99844.05
2022-12-22T02:42:21.671Z,99846.81
2022-12-22T02:45:40.103Z,99843.69
2022-12-22T02:48:54.848Z,99848.27
2022-12-22T02:52:07.653Z,99851.81
2022-12-22T02:55:12.967Z,99850.20
2022-12-22T02:58:19.050Z,99851.88
2022-12-22T03:01:25.628Z,99854.95
2022-12-22T03:04:30.867Z,99853.55
2022-12-22T03:07:35.841Z,99851.30
2022-12-22T03:10:41.587Z,99847.58
2022-12-22T03:13:55.051Z,99840.80
2022-12-22T03:18:30.597Z,99841.50
2022-12-22T03:21:35.382Z,99838.63
2022-12-22T03:24:39.521Z,99837.55
2022-12-22T03:27:44.602Z,99839.39
2022-12-22T03:31:48.681Z,99841.91
2022-12-22T03:34:35.679Z,99842.50
2022-12-22T03:37:25.589Z,99838.04
2022-12-22T03:40:12.159Z,99834.13
2022-12-22T03:43:18.164Z,99829.58
2022-12-22T03:48:26.719Z,99828.04
2022-12-22T03:51:13.396Z,99831.48
2022-12-22T03:54:01.965Z,99834.81
2022-12-22T03:56:50.353Z,99838.17
2022-12-22T03:59:36.902Z,99834.54
2022-12-22T04:03:49.732Z,99828.77
2022-12-22T04:06:36.270Z,99824.08
2022-12-22T04:09:23.747Z,99820.27
2022-12-22T04:12:29.690Z,99814.34
2022-12-22T04:15:16.686Z,99811.59
2022-12-22T04:18:04.889Z,99807.66
2022-12-22T04:20:51.458Z,99807.83
2022-12-22T04:23:38.779Z,99807.24
2022-12-22T04:26:27.313Z,99807.25
2022-12-22T04:30:51.237Z,99805.17
2022-12-22T04:34:47.980Z,99802.55
2022-12-22T04:38:43.939Z,99797.50
2022-12-22T04:41:30.582Z,99796.55
2022-12-22T04:44:17.541Z,99785.84
2022-12-22T04:47:04.314Z,99776.69
2022-12-22T04:49:51.410Z,99778.64
2022-12-22T04:54:00.672Z,99788.34
2022-12-22T04:57:57.810Z,99788.38
2022-12-22T05:01:56.652Z,99796.45
2022-12-22T05:05:54.903Z,99808.82
2022-12-22T05:09:49.661Z,99799.48
2022-12-22T05:12:55.208Z,99797.52
2022-12-22T05:15:41.421Z,99793.25
2022-12-22T05:18:27.720Z,99789.38
2022-12-22T05:21:17.480Z,99785.34
2022-12-22T05:24:04.496Z,99781.77
2022-12-22T05:26:50.927Z,99775.04
2022-12-22T05:29:38.575Z,99771.14
2022-12-22T05:32:27.802Z,99768.41
2022-12-22T05:35:14.660Z,99765.52
2022-12-22T05:38:02.329Z,99769.45
2022-12-22T05:40:49.930Z,99768.23
2022-12-22T05:43:37.102Z,99770.50
2022-12-22T05:47:02.336Z,99777.18
2022-12-22T05:49:48.841Z,99782.83
2022-12-22T05:52:35.640Z,99783.08
2022-12-22T05:55:22.837Z,99781.58
2022-12-22T05:58:11.444Z,99788.05
2022-12-22T06:00:59.887Z,99785.95
2022-12-22T06:03:46.437Z,99782.30
2022-12-22T06:06:36.066Z,99783.77
2022-12-22T06:09:22.896Z,99786.58
2022-12-22T06:12:12.361Z,99788.98
2022-12-22T06:15:00.562Z,99793.39
2022-12-22T06:17:47.579Z,99788.39
2022-12-22T06:20:34.434Z,99797.14
2022-12-22T06:23:22.556Z,99804.92
2022-12-22T06:26:19.944Z,99808.95
2022-12-22T06:29:11.660Z,99808.24
2022-12-22T06:32:03.977Z,99805.18
2022-12-22T06:35:00.962Z,99805.61
2022-12-22T06:37:47.472Z,99804.17
2022-12-22T06:40:36.647Z,99799.20
2022-12-22T06:43:25.423Z,99806.15
2022-12-22T06:49:15.552Z,99815.03
2022-12-22T06:52:20.224Z,99815.84
2022-12-22T06:56:53.420Z,99813.08
2022-12-22T06:59:40.074Z,99815.59
2022-12-22T07:02:30.407Z,99808.90
2022-12-22T07:05:17.771Z,99812.19
2022-12-22T07:08:08.877Z,99811.51
2022-12-22T07:10:59.872Z,99809.05
2022-12-22T07:13:51.307Z,99811.67
2022-12-22T07:16:39.072Z,99811.32
2022-12-22T07:19:25.850Z,99803.67
2022-12-22T07:23:03.080Z,99800.92
2022-12-22T07:37:11.945Z,99789.06
2022-12-22T07:40:06.357Z,99786.83
2022-12-22T07:43:02.084Z,99789.61
2022-12-22T07:49:17.478Z,99777.71
2022-12-22T07:52:09.695Z,99765.92
2022-12-22T07:54:57.405Z,99772.36
2022-12-22T07:57:50.439Z,99773.70
2022-12-22T08:02:02.265Z,99776.81
2022-12-22T08:04:49.097Z,99775.59
2022-12-22T08:07:36.617Z,99770.85
2022-12-22T08:10:23.865Z,99770.35
2022-12-22T08:13:10.800Z,99767.06
2022-12-22T08:16:05.461Z,99767.80
2022-12-22T08:18:55.247Z,99767.50
2022-12-22T08:21:45.385Z,99767.29
2022-12-22T08:24:51.388Z,99758.52
2022-12-22T08:27:57.835Z,99755.18
2022-12-22T08:30:59.455Z,99749.39
2022-12-22T08:33:53.734Z,99740.48
2022-12-22T09:02:47.873Z,99725.42
2022-12-22T09:16:49.944Z,99720.95
2022-12-22T09:20:09.607Z,99725.98
2022-12-22T09:22:57.763Z,99729.33
2022-12-22T09:25:45.964Z,99730.86
2022-12-22T09:28:57.017Z,99726.31
2022-12-22T09:31:51.139Z,99737.63
2022-12-22T09:34:37.910Z,99736.85
2022-12-22T09:41:32.724Z,99723.09
2022-12-22T10:01:55.463Z,99684.65
2022-12-22T10:05:42.884Z,99671.96
2022-12-22T10:08:49.932Z,99665.52
2022-12-22T10:11:50.303Z,99662.33
2022-12-22T10:14:56.188Z,99660.89
2022-12-22T10:29:12.856Z,99650.17
2022-12-22T10:42:39.254Z,99628.42
2022-12-22T11:01:05.229Z,99606.83
2022-12-22T11:16:19.850Z,99582.30
2022-12-22T11:19:47.937Z,99568.52
2022-12-22T11:22:42.648Z,99563.65
2022-12-22T11:25:42.503Z,99566.73
2022-12-22T11:29:02.307Z,99565.95
2022-12-22T11:32:08.536Z,99557.30
2022-12-22T11:35:37.707Z,99557.16
2022-12-22T11:39:03.979Z,99572.42
2022-12-22T11:42:42.834Z,99562.50
2022-12-22T12:00:09.531Z,99539.41
2022-12-22T12:14:24.464Z,99526.30
2022-12-22T12:17:43.332Z,99515.20
2022-12-22T12:45:55.511Z,99494.55
2022-12-22T12:59:58.775Z,99475.20
2022-12-22T13:03:02.165Z,99465.08
2022-12-22T13:18:02.994Z,99476.08
2022-12-22T13:31:50.769Z,99472.42
2022-12-22T13:38:33.370Z,99487.13
2022-12-22T13:41:27.109Z,99480.20
2022-12-22T13:44:30.264Z,99471.41
2022-12-22T13:47:27.576Z,99463.95
2022-12-22T13:50:27.172Z,99466.83
2022-12-22T14:04:16.943Z,99449.85
2022-12-22T14:07:12.608Z,99445.11
2022-12-22T14:10:03.295Z,99449.37
2022-12-22T14:12:51.172Z,99444.85
2022-12-22T14:15:47.775Z,99445.20
2022-12-22T14:18:36.860Z,99445.33
2022-12-22T14:21:25.709Z,99435.87
2022-12-22T14:24:38.054Z,99425.54
2022-12-22T14:27:44.352Z,99419.58
2022-12-22T14:30:44.476Z,99412.98
2022-12-22T14:33:34.387Z,99409.59
2022-12-22T14:36:24.360Z,99402.73
2022-12-22T14:40:34.298Z,99401.61
2022-12-22T14:43:26.508Z,99403.39
2022-12-22T14:46:13.794Z,99399.74
2022-12-22T14:49:01.205Z,99391.70
2022-12-22T14:52:06.664Z,99380.73
2022-12-22T14:54:56.584Z,99381.99
2022-12-22T14:58:10.773Z,99383.83
2022-12-22T15:08:54.808Z,99397.85
2022-12-22T15:12:18.201Z,99392.76
2022-12-22T15:26:03.701Z,99381.55
2022-12-22T15:28:50.433Z,99382.52
2022-12-22T15:31:39.003Z,99378.88
2022-12-22T15:34:32.456Z,99376.82
2022-12-22T15:37:21.070Z,99380.48
2022-12-22T15:57:15.543Z,99366.45
2022-12-22T16:00:03.111Z,99367.88
2022-12-22T16:02:52.101Z,99360.73
2022-12-22T16:05:55.703Z,99362.17
2022-12-22T16:08:50.060Z,99361.41
2022-12-22T16:11:39.152Z,99353.52
2022-12-22T16:14:26.855Z,99348.65
2022-12-22T16:17:28.846Z,99340.42
2022-12-22T16:20:15.440Z,99334.98
2022-12-22T16:23:17.398Z,99325.95
2022-12-22T16:26:08.836Z,99325.26
2022-12-22T16:31:02.123Z,99316.81
2022-12-22T16:33:49.001Z,99318.48
2022-12-22T16:36:37.095Z,99314.48
2022-12-22T16:39:24.307Z,99315.30
2022-12-22T16:45:25.846Z,99311.34
2022-12-22T16:48:57.733Z,99309.91
2022-12-22T16:51:49.826Z,99310.28
2022-12-22T16:54:35.201Z,99310.45
2022-12-22T16:57:23.201Z,99316.09
2022-12-22T17:00:17.830Z,99316.08
2022-12-22T17:03:16.267Z,99320.88
2022-12-22T17:06:04.585Z,99319.05
2022-12-22T17:08:51.100Z,99317.00
2022-12-22T17:11:37.358Z,99314.75
2022-12-22T17:14:36.528Z,99308.66
2022-12-22T17:17:30.872Z,99306.59
2022-12-22T17:20:21.505Z,99304.41
2022-12-22T17:23:06.304Z,99298.95
2022-12-22T17:25:51.665Z,99296.05
2022-12-22T17:28:38.255Z,99296.01
2022-12-22T17:31:23.741Z,99294.00
2022-12-22T17:34:14.355Z,99293.58
2022-12-22T17:36:59.307Z,99291.00
2022-12-22T17:39:49.024Z,99292.24
2022-12-22T17:42:35.557Z,99291.92
2022-12-22T17:45:22.362Z,99292.67
2022-12-22T17:48:08.569Z,99291.41
2022-12-22T17:51:03.884Z,99289.42
2022-12-22T17:53:58.364Z,99282.36
2022-12-22T17:56:44.859Z,99280.07
2022-12-22T17:59:34.299Z,99279.67
2022-12-22T18:13:36.568Z,99267.98
2022-12-22T18:16:44.262Z,99259.72
2022-12-22T18:19:35.319Z,99254.73
2022-12-22T18:22:28.560Z,99244.56
2022-12-22T18:25:28.109Z,99247.45
2022-12-22T18:28:17.655Z,99240.42
2022-12-22T18:31:04.287Z,99233.17
2022-12-22T18:33:57.671Z,99235.34
2022-12-22T18:36:46.196Z,99241.83
2022-12-22T18:39:34.095Z,99237.09
2022-12-22T18:42:23.921Z,99231.39
2022-12-22T18:45:15.392Z,99239.27
2022-12-22T18:48:02.590Z,99234.95
2022-12-22T18:50:50.670Z,99230.24
2022-12-22T18:53:47.934Z,99228.20
2022-12-22T18:56:36.433Z,99229.94
2022-12-22T18:59:36.445Z,99231.55
2022-12-22T19:02:30.964Z,99230.92
2022-12-22T19:05:25.709Z,99227.89
2022-12-22T19:08:23.625Z,99228.48
2022-12-22T19:11:13.127Z,99221.39
2022-12-22T19:14:03.042Z,99220.16
2022-12-22T19:16:51.693Z,99215.39
2022-12-22T19:19:39.446Z,99210.84
2022-12-22T19:22:28.135Z,99207.39
2022-12-22T19:25:20.913Z,99203.34
2022-12-22T19:28:16.308Z,99208.27
2022-12-22T19:31:07.613Z,99207.57
2022-12-22T19:33:56.287Z,99200.90
2022-12-22T19:36:43.956Z,99203.79
2022-12-22T19:39:30.924Z,99200.44
2022-12-22T19:42:22.207Z,99199.94
2022-12-22T19:45:24.621Z,99205.75
2022-12-22T19:48:22.545Z,99207.03
2022-12-22T19:51:16.021Z,99207.59
2022-12-22T19:54:04.646Z,99202.77
2022-12-22T19:56:54.184Z,99195.27
2022-12-22T19:59:45.783Z,99193.94
2022-12-22T20:02:33.823Z,99190.42
2022-12-22T20:05:24.847Z,99187.75
2022-12-22T20:08:12.492Z,99184.81
2022-12-22T20:11:00.315Z,99185.45
2022-12-22T20:13:49.389Z,99181.15
2022-12-22T20:16:37.509Z,99177.42
2022-12-22T20:19:24.958Z,99179.50
2022-12-22T20:22:39.689Z,99177.84
2022-12-22T20:25:30.148Z,99175.74
2022-12-22T20:28:31.485Z,99172.84
2022-12-22T20:31:23.002Z,99172.27
2022-12-22T20:34:12.357Z,99170.76
2022-12-22T20:37:01.716Z,99168.05
2022-12-22T20:39:58.209Z,99163.09
2022-12-22T20:42:46.425Z,99165.02
2022-12-22T20:45:34.065Z,99166.87
2022-12-22T20:49:05.212Z,99164.20
2022-12-22T20:52:19.433Z,99168.16
2022-12-22T20:55:09.913Z,99170.07
2022-12-22T20:58:07.421Z,99174.48
2022-12-22T21:01:04.397Z,99177.50
2022-12-22T21:03:59.772Z,99175.16
2022-12-22T21:06:58.686Z,99173.98
2022-12-22T21:09:46.726Z,99178.84
2022-12-22T21:12:39.948Z,99173.16
2022-12-22T21:15:35.269Z,99170.83
2022-12-22T21:18:29.245Z,99170.67
2022-12-22T21:21:22.172Z,99165.27
2022-12-22T21:24:14.156Z,99163.68
2022-12-22T21:27:01.455Z,99163.74
2022-12-22T21:29:51.418Z,99163.79
2022-12-22T21:32:41.302Z,99163.28
2022-12-22T21:35:33.980Z,99164.16
2022-12-22T21:38:24.155Z,99159.48
2022-12-22T21:41:10.173Z,99156.23
2022-12-22T21:43:56.905Z,99154.94
2022-12-22T21:46:46.424Z,99149.56
2022-12-22T21:49:34.179Z,99149.80
2022-12-22T21:52:20.535Z,99146.05
2022-12-22T21:55:09.942Z,99147.36
2022-12-22T21:57:57.944Z,99146.90
2022-12-22T22:00:48.263Z,99145.27
2022-12-22T22:03:34.843Z,99147.46
2022-12-22T22:06:40.179Z,99151.97
2022-12-22T22:09:26.542Z,99148.09
2022-12-22T22:12:31.982Z,99149.22
2022-12-22T22:15:18.696Z,99152.06
2022-12-22T22:18:07.594Z,99148.23
2022-12-22T22:20:54.327Z,99149.80
2022-12-22T22:23:41.851Z,99149.38
2022-12-22T22:26:28.345Z,99147.09
2022-12-22T22:29:14.699Z,99149.75
2022-12-22T22:32:01.583Z,99145.66
2022-12-22T22:34:48.270Z,99144.05
2022-12-22T22:37:35.062Z,99142.55
2022-12-22T22:40:24.369Z,99143.55
2022-12-22T22:43:11.161Z,99146.08
2022-12-22T22:45:57.586Z,99147.63
2022-12-22T22:48:44.415Z,99143.05
2022-12-22T22:51:31.365Z,99144.77
2022-12-22T22:54:19.763Z,99143.79
2022-12-22T22:57:07.241Z,99141.66
2022-12-22T22:59:58.486Z,99139.69
2022-12-22T23:02:45.663Z,99139.66
2022-12-22T23:05:33.144Z,99131.32
2022-12-22T23:19:41.891Z,99132.58
2022-12-22T23:33:45.819Z,99136.98
2022-12-22T23:36:48.136Z,99137.27
